createdAt,value
2022-09-23T00:01:28.831Z,69.77
2022-09-23T00:04:00.292Z,69.90
2022-09-23T00:06:28.540Z,69.86
2022-09-23T00:08:56.764Z,69.61
2022-09-23T00:11:27.697Z,69.82
2022-09-23T00:13:58.541Z,69.87
2022-09-23T00:16:34.148Z,69.88
2022-09-23T00:19:04.629Z,69.90
2022-09-23T00:21:33.191Z,69.84
2022-09-23T00:24:02.488Z,69.94
2022-09-23T00:26:31.074Z,69.91
2022-09-23T00:28:59.382Z,69.89
2022-09-23T00:31:28.445Z,69.93
2022-09-23T00:33:59.446Z,70.02
2022-09-23T00:36:29.441Z,70.02
2022-09-23T00:38:58.085Z,69.88
2022-09-23T00:41:27.342Z,69.70
2022-09-23T00:44:00.264Z,69.67
2022-09-23T00:46:43.181Z,69.68
2022-09-23T00:49:25.394Z,69.67
2022-09-23T00:51:58.684Z,69.48
2022-09-23T00:54:27.954Z,69.55
2022-09-23T00:56:57.689Z,69.53
2022-09-23T00:59:29.110Z,69.58
2022-09-23T01:01:59.137Z,69.54
2022-09-23T01:04:28.872Z,69.48
2022-09-23T01:06:57.213Z,69.41
2022-09-23T01:09:26.124Z,69.56
2022-09-23T01:12:16.183Z,69.65
2022-09-23T01:15:08.772Z,69.73
2022-09-23T01:18:08.398Z,69.83
2022-09-23T01:20:45.593Z,69.74
2022-09-23T01:23:19.494Z,69.61
2022-09-23T01:26:12.226Z,69.47
2022-09-23T01:28:43.267Z,69.69
2022-09-23T01:31:28.438Z,69.99
2022-09-23T01:34:06.562Z,69.94
2022-09-23T01:36:41.564Z,69.78
2022-09-23T01:39:22.860Z,69.86
2022-09-23T01:42:03.015Z,69.96
2022-09-23T01:44:43.784Z,70.05
2022-09-23T01:47:23.096Z,70.03
2022-09-23T01:49:58.075Z,70.07
2022-09-23T01:52:41.813Z,69.86
2022-09-23T01:55:20.107Z,69.94
2022-09-23T01:57:59.026Z,69.96
2022-09-23T02:00:32.213Z,70.11
2022-09-23T02:03:22.174Z,70.21
2022-09-23T02:06:00.621Z,70.44
2022-09-23T02:08:34.867Z,70.59
2022-09-23T02:11:08.436Z,70.63
2022-09-23T02:13:59.195Z,70.61
2022-09-23T02:16:44.805Z,70.74
2022-09-23T02:19:20.358Z,70.78
2022-09-23T02:21:55.615Z,70.70
2022-09-23T02:24:31.365Z,70.67
2022-09-23T02:27:03.830Z,70.52
2022-09-23T02:30:00.486Z,70.35
2022-09-23T02:32:44.208Z,70.35
2022-09-23T02:35:22.727Z,70.49
2022-09-23T02:38:16.144Z,70.55
2022-09-23T02:40:56.665Z,70.61
2022-09-23T02:43:35.700Z,70.77
2022-09-23T02:46:04.960Z,70.85
2022-09-23T02:48:41.597Z,70.95
2022-09-23T02:51:10.607Z,70.96
2022-09-23T02:53:39.742Z,70.97
2022-09-23T02:56:20.381Z,71.03
2022-09-23T02:58:50.222Z,70.94
2022-09-23T03:01:38.584Z,70.87
2022-09-23T03:04:25.992Z,70.92
2022-09-23T03:07:14.525Z,70.86
2022-09-23T03:10:04.238Z,70.90
2022-09-23T03:12:44.848Z,70.89
2022-09-23T03:15:27.090Z,70.83
2022-09-23T03:17:59.578Z,70.87
2022-09-23T03:20:42.746Z,70.94
2022-09-23T03:23:15.425Z,71.09
2022-09-23T03:25:47.495Z,71.01
2022-09-23T03:28:22.130Z,71.15
2022-09-23T03:30:53.081Z,71.30
2022-09-23T03:33:28.823Z,71.40
2022-09-23T03:36:25.797Z,71.46
2022-09-23T03:39:04.124Z,71.69
2022-09-23T03:41:42.118Z,71.69
2022-09-23T03:44:11.958Z,71.61
2022-09-23T03:46:44.155Z,71.53
